createdAt,value
2022-11-17T00:03:26.626Z,5.93
2022-11-17T00:08:28.274Z,13.77
2022-11-17T00:13:48.975Z,9.45
2022-11-17T00:19:09.420Z,8.77
2022-11-17T00:24:11.207Z,9.07
2022-11-17T00:29:12.879Z,5.22
2022-11-17T00:34:20.661Z,13.93
2022-11-17T00:39:23.797Z,5.57
2022-11-17T00:44:25.978Z,6.38
2022-11-17T00:49:28.166Z,16.02
2022-11-17T00:54:30.365Z,6.70
2022-11-17T00:59:32.463Z,9.88
2022-11-17T01:04:34.268Z,14.00
2022-11-17T01:09:35.929Z,12.00
2022-11-17T01:14:37.625Z,12.02
2022-11-17T01:19:39.382Z,5.78
2022-11-17T01:24:41.479Z,5.68
2022-11-17T01:29:43.138Z,3.50
2022-11-17T01:34:44.822Z,19.60
2022-11-17T01:39:46.991Z,26.00
2022-11-17T01:45:01.393Z,13.32
2022-11-17T01:50:28.298Z,9.60
2022-11-17T01:55:38.712Z,5.72
2022-11-17T02:00:41.381Z,5.15
2022-11-17T02:05:57.600Z,8.55
2022-11-17T02:11:01.699Z,6.55
2022-11-17T02:16:03.840Z,9.77
2022-11-17T02:21:17.414Z,8.45
2022-11-17T02:26:40.988Z,4.38
2022-11-17T02:31:58.239Z,3.92
2022-11-17T02:37:20.326Z,6.63
2022-11-17T02:42:54.440Z,14.20
2022-11-17T02:47:58.414Z,8.88
2022-11-17T02:53:00.302Z,6.63
2022-11-17T02:58:01.974Z,4.90
2022-11-17T03:03:22.323Z,3.78
2022-11-17T03:09:01.728Z,4.47
2022-11-17T03:14:23.599Z,12.98
2022-11-17T03:19:25.645Z,3.10
2022-11-17T03:24:31.235Z,3.53
2022-11-17T03:29:36.554Z,3.50
2022-11-17T03:34:45.646Z,2.67
2022-11-17T03:39:51.305Z,3.83
2022-11-17T03:45:01.586Z,14.10
2022-11-17T03:50:16.028Z,8.02
2022-11-17T03:55:17.821Z,3.17
2022-11-17T04:00:20.558Z,2.55
2022-11-17T04:05:22.714Z,3.53
2022-11-17T04:10:26.281Z,7.53
2022-11-17T04:15:47.169Z,3.13
2022-11-17T04:20:56.863Z,2.35
2022-11-17T04:26:16.989Z,2.35
2022-11-17T04:31:20.028Z,2.65
2022-11-17T04:36:26.986Z,5.18
2022-11-17T04:41:48.807Z,3.15
2022-11-17T04:46:50.812Z,2.83
2022-11-17T04:51:53.648Z,3.47
2022-11-17T04:56:56.006Z,2.65
2022-11-17T05:02:02.483Z,3.40
2022-11-17T05:07:08.800Z,4.10
2022-11-17T05:12:29.377Z,9.35
2022-11-17T05:17:31.026Z,2.05
2022-11-17T05:22:51.299Z,4.20
2022-11-17T05:27:53.589Z,5.20
2022-11-17T05:32:55.220Z,5.82
2022-11-17T05:37:56.866Z,3.40
2022-11-17T05:42:58.527Z,5.63
2022-11-17T05:48:00.204Z,3.45
2022-11-17T05:53:01.899Z,3.60
2022-11-17T05:58:29.903Z,8.27
2022-11-17T06:03:37.126Z,11.80
2022-11-17T06:08:39.421Z,12.18
2022-11-17T06:13:41.107Z,4.18
2022-11-17T06:18:49.012Z,6.40
2022-11-17T06:23:51.111Z,4.22
2022-11-17T06:28:53.295Z,4.18
2022-11-17T06:33:55.488Z,9.15
2022-11-17T06:38:57.393Z,7.65
2022-11-17T06:43:59.126Z,10.02
2022-11-17T06:49:01.227Z,8.85
2022-11-17T06:54:03.976Z,5.85
2022-11-17T06:59:06.101Z,2.97
2022-11-17T07:04:08.933Z,9.93
2022-11-17T07:09:10.647Z,3.53
2022-11-17T07:14:12.441Z,4.82
2022-11-17T07:19:14.293Z,6.15
2022-11-17T07:24:16.087Z,5.90
2022-11-17T07:29:17.821Z,3.17
2022-11-17T07:34:19.540Z,5.32
2022-11-17T07:39:22.170Z,3.08
2022-11-17T07:44:24.000Z,12.48
2022-11-17T07:49:27.452Z,13.60
2022-11-17T07:54:29.185Z,8.90
2022-11-17T07:59:30.863Z,7.10
2022-11-17T08:04:32.636Z,8.85
2022-11-17T08:09:34.352Z,2.47
2022-11-17T08:14:36.166Z,1.98
2022-11-17T08:19:37.886Z,2.60
2022-11-17T08:24:39.801Z,5.50
2022-11-17T08:29:41.585Z,4.00
2022-11-17T08:34:43.332Z,2.97
2022-11-17T08:39:45.134Z,5.28
2022-11-17T08:44:46.889Z,1.58
2022-11-17T08:49:48.618Z,5.57
2022-11-17T08:54:52.434Z,3.45
2022-11-17T08:59:54.266Z,2.85
2022-11-17T09:04:56.043Z,1.85
2022-11-17T09:09:57.758Z,4.15
2022-11-17T09:14:59.472Z,1.90
2022-11-17T09:20:01.385Z,3.13
2022-11-17T09:25:03.220Z,3.55
2022-11-17T09:30:05.430Z,2.25
2022-11-17T09:35:09.328Z,2.85
2022-11-17T09:40:15.780Z,2.00
2022-11-17T09:45:25.479Z,4.53
2022-11-17T09:50:39.751Z,3.55
2022-11-17T09:55:45.316Z,5.85
2022-11-17T10:00:48.904Z,2.38
2022-11-17T10:05:51.742Z,2.45
2022-11-17T10:10:53.476Z,1.40
2022-11-17T10:16:03.846Z,1.42
2022-11-17T10:21:08.203Z,3.20
2022-11-17T10:26:12.992Z,2.35
2022-11-17T10:31:17.582Z,4.00
2022-11-17T10:36:27.796Z,2.15
2022-11-17T10:41:50.456Z,1.58
2022-11-17T10:47:01.764Z,2.90
2022-11-17T10:52:05.415Z,3.45
2022-11-17T10:57:14.884Z,0.95
2022-11-17T11:02:30.553Z,1.70
2022-11-17T11:07:32.388Z,4.90
2022-11-17T11:12:52.999Z,6.95
2022-11-17T11:17:54.730Z,2.20
2022-11-17T11:23:02.589Z,2.05
2022-11-17T11:28:33.233Z,7.72
2022-11-17T11:33:38.466Z,5.13
2022-11-17T11:38:58.908Z,2.60
2022-11-17T11:44:35.515Z,3.47
2022-11-17T11:49:49.376Z,4.30
2022-11-17T11:54:58.066Z,3.28
2022-11-17T12:00:04.969Z,2.65
2022-11-17T12:05:48.918Z,2.72
2022-11-17T12:10:57.373Z,2.58
2022-11-17T12:16:37.010Z,8.38
2022-11-17T12:21:39.785Z,6.80
2022-11-17T12:26:41.582Z,7.05
2022-11-17T12:31:45.558Z,2.15
2022-11-17T12:37:06.941Z,4.22
2022-11-17T12:42:08.663Z,3.37
2022-11-17T12:47:17.691Z,3.53
2022-11-17T12:52:43.706Z,6.13
2022-11-17T12:57:51.778Z,3.88
2022-11-17T13:03:15.305Z,4.25
2022-11-17T13:08:16.958Z,7.00
2022-11-17T13:13:23.718Z,4.70
2022-11-17T13:18:33.338Z,4.10
2022-11-17T13:23:35.051Z,1.73
2022-11-17T13:28:37.096Z,6.32
2022-11-17T13:33:40.567Z,3.58
2022-11-17T13:38:54.672Z,3.72
2022-11-17T13:43:57.197Z,2.58
2022-11-17T13:48:58.939Z,5.13
2022-11-17T13:54:14.128Z,5.25
2022-11-17T13:59:29.331Z,11.02
2022-11-17T14:04:31.179Z,5.50
2022-11-17T14:09:36.236Z,10.70
2022-11-17T14:14:43.916Z,6.72
2022-11-17T14:19:46.732Z,8.35
2022-11-17T14:24:48.531Z,3.03
2022-11-17T14:29:50.330Z,10.88
2022-11-17T14:34:52.060Z,11.25
2022-11-17T14:39:53.737Z,9.82
2022-11-17T14:44:55.639Z,4.88
2022-11-17T14:49:57.305Z,11.18
2022-11-17T14:55:00.673Z,7.50
2022-11-17T15:00:02.717Z,21.42
2022-11-17T15:05:04.727Z,27.95
2022-11-17T15:10:07.614Z,19.08
2022-11-17T15:15:09.804Z,14.73
2022-11-17T15:20:12.002Z,55.65
2022-11-17T15:25:13.711Z,12.00
2022-11-17T15:30:15.567Z,31.20
2022-11-17T15:35:17.270Z,19.65
2022-11-17T15:40:19.852Z,7.63
2022-11-17T15:45:21.676Z,14.60
2022-11-17T15:50:23.365Z,10.60
2022-11-17T15:55:25.118Z,15.07
2022-11-17T16:00:26.902Z,18.30
2022-11-17T16:05:28.688Z,13.13
2022-11-17T16:10:30.424Z,22.92
2022-11-17T16:15:32.189Z,11.95
2022-11-17T16:20:33.981Z,17.23
2022-11-17T16:25:47.048Z,45.05
2022-11-17T16:30:49.139Z,29.58
2022-11-17T16:35:50.941Z,29.08
2022-11-17T16:40:52.647Z,27.85
2022-11-17T16:45:54.359Z,33.67
2022-11-17T16:50:56.070Z,30.83
2022-11-17T16:56:06.370Z,24.30
2022-11-17T17:01:12.808Z,18.58
2022-11-17T17:06:17.567Z,23.80
2022-11-17T17:11:20.103Z,31.35
2022-11-17T17:16:21.994Z,36.20
2022-11-17T17:21:23.853Z,25.08
2022-11-17T17:26:28.249Z,17.13
2022-11-17T17:31:35.747Z,42.40
2022-11-17T17:36:38.557Z,40.67
2022-11-17T17:41:40.983Z,29.08
2022-11-17T17:46:43.200Z,39.15
2022-11-17T17:51:45.133Z,32.55
2022-11-17T17:56:47.740Z,34.67
2022-11-17T18:01:49.739Z,17.02
2022-11-17T18:06:51.593Z,19.65
2022-11-17T18:11:53.835Z,27.02
2022-11-17T18:16:55.862Z,18.90
2022-11-17T18:21:58.011Z,29.52
2022-11-17T18:27:00.875Z,41.63
2022-11-17T18:32:02.599Z,44.40
2022-11-17T18:37:04.373Z,29.27
2022-11-17T18:42:06.213Z,40.45
2022-11-17T18:47:07.954Z,34.38
2022-11-17T18:52:10.167Z,44.70
2022-11-17T18:57:12.278Z,82.78
2022-11-17T19:02:13.916Z,50.50
2022-11-17T19:07:15.699Z,15.65
2022-11-17T19:12:19.011Z,12.75
2022-11-17T19:17:20.715Z,14.77
2022-11-17T19:22:23.130Z,28.55
2022-11-17T19:27:25.207Z,16.58
2022-11-17T19:32:26.992Z,17.73
2022-11-17T19:37:28.677Z,17.00
2022-11-17T19:42:30.401Z,25.92
2022-11-17T19:47:32.101Z,16.63
2022-11-17T19:52:33.887Z,8.55
2022-11-17T19:57:35.563Z,18.33
2022-11-17T20:02:37.440Z,10.95
2022-11-17T20:07:39.303Z,12.20
2022-11-17T20:12:43.354Z,21.77
2022-11-17T20:17:45.171Z,22.30
2022-11-17T20:22:46.905Z,18.25
2022-11-17T20:27:48.667Z,24.13
2022-11-17T20:32:50.406Z,17.17
2022-11-17T20:37:52.135Z,16.45
2022-11-17T20:42:53.834Z,25.02
2022-11-17T20:47:55.639Z,15.88
2022-11-17T20:52:57.331Z,11.95
2022-11-17T20:57:59.469Z,26.98
2022-11-17T21:03:01.224Z,22.70
2022-11-17T21:08:03.364Z,8.90
2022-11-17T21:13:05.065Z,13.85
2022-11-17T21:18:24.834Z,5.63
2022-11-17T21:23:27.623Z,7.55
2022-11-17T21:28:29.396Z,12.63
2022-11-17T21:33:31.148Z,11.00
2022-11-17T21:38:32.862Z,9.43
2022-11-17T21:43:38.977Z,7.20
2022-11-17T21:48:41.549Z,10.20
2022-11-17T21:53:44.008Z,2.40
2022-11-17T21:58:45.691Z,4.35
2022-11-17T22:03:47.775Z,3.10
2022-11-17T22:08:50.197Z,3.30
2022-11-17T22:13:52.301Z,3.97
2022-11-17T22:18:54.447Z,0.73
2022-11-17T22:23:56.490Z,1.65
2022-11-17T22:28:59.176Z,3.78
2022-11-17T22:34:00.985Z,1.45
2022-11-17T22:39:03.195Z,2.53
2022-11-17T22:44:06.275Z,1.67
2022-11-17T22:49:08.371Z,1.10
2022-11-17T22:54:10.086Z,5.05
2022-11-17T22:59:11.786Z,1.05
2022-11-17T23:04:14.104Z,0.98
2022-11-17T23:09:16.125Z,0.40
2022-11-17T23:14:18.044Z,4.28
2022-11-17T23:19:20.100Z,0.35
2022-11-17T23:24:22.224Z,0.65
2022-11-17T23:29:23.910Z,1.70
2022-11-17T23:34:27.536Z,1.08
2022-11-17T23:39:29.290Z,0.80
2022-11-17T23:44:31.272Z,0.57
2022-11-17T23:49:33.012Z,5.03
2022-11-17T23:54:34.812Z,0.82
2022-11-17T23:59:36.540Z,1.38
